createdAt,value
2018-10-12T00:00:52.615Z,94.80
2018-10-12T00:03:19.355Z,94.90
2018-10-12T00:05:46.031Z,94.90
2018-10-12T00:08:12.678Z,94.90
2018-10-12T00:10:39.352Z,94.80
2018-10-12T00:13:05.990Z,94.50
2018-10-12T00:15:32.765Z,94.40
2018-10-12T00:17:59.702Z,94.50
2018-10-12T00:20:26.611Z,94.70
2018-10-12T00:22:53.261Z,94.70
2018-10-12T00:25:20.150Z,94.60
2018-10-12T00:27:46.853Z,94.40
2018-10-12T00:30:13.618Z,94.20
2018-10-12T00:32:40.252Z,94.20
2018-10-12T00:35:06.907Z,94.20
2018-10-12T00:37:33.631Z,94.20
2018-10-12T00:40:00.510Z,94.20
2018-10-12T00:42:27.714Z,94.20
2018-10-12T00:44:54.396Z,94.50
2018-10-12T00:47:21.064Z,94.80
2018-10-12T00:49:47.929Z,94.90
2018-10-12T00:52:14.571Z,94.90
2018-10-12T00:54:41.233Z,94.90
2018-10-12T00:57:14.753Z,95.30
2018-10-12T00:59:41.400Z,95.40
2018-10-12T01:02:08.423Z,96.10
2018-10-12T01:04:36.107Z,96.20
2018-10-12T01:07:03.689Z,96.50
2018-10-12T01:09:31.108Z,97.30
2018-10-12T01:12:03.665Z,97.40
2018-10-12T01:14:30.454Z,97.80
2018-10-12T01:16:57.281Z,98.30
2018-10-12T01:19:23.931Z,98.80
2018-10-12T01:21:50.602Z,99.30
2018-10-12T01:24:17.259Z,99.70
2018-10-12T01:26:43.924Z,99.90
2018-10-12T01:29:10.562Z,99.90
2018-10-12T01:31:37.228Z,99.90
2018-10-12T01:34:03.875Z,99.90
2018-10-12T01:36:30.817Z,99.90
2018-10-12T01:38:57.655Z,99.90
2018-10-12T01:41:24.363Z,99.90
2018-10-12T01:43:51.001Z,99.90
2018-10-12T01:46:17.699Z,99.90
2018-10-12T01:48:44.611Z,99.90
2018-10-12T01:51:11.287Z,99.90
2018-10-12T01:53:37.975Z,99.90
2018-10-12T01:56:05.430Z,99.90
2018-10-12T01:58:32.595Z,99.90
2018-10-12T02:00:59.713Z,99.90
2018-10-12T02:03:26.432Z,99.90
2018-10-12T02:05:53.296Z,99.90
2018-10-12T02:08:20.519Z,99.90
2018-10-12T02:10:47.240Z,99.90
2018-10-12T02:13:14.040Z,99.90
2018-10-12T02:15:40.681Z,99.90
2018-10-12T02:18:07.339Z,99.90
2018-10-12T02:20:34.103Z,99.90
2018-10-12T02:23:00.866Z,99.90
2018-10-12T02:25:27.789Z,99.90
2018-10-12T02:27:54.514Z,99.90
2018-10-12T02:30:21.143Z,99.90
2018-10-12T02:32:47.912Z,99.90
2018-10-12T02:35:14.591Z,99.90
2018-10-12T02:37:41.267Z,99.90
2018-10-12T02:40:07.894Z,99.90
2018-10-12T02:42:34.639Z,99.90
2018-10-12T02:45:01.491Z,99.90
2018-10-12T02:47:28.294Z,99.90
2018-10-12T02:49:54.956Z,99.90
2018-10-12T02:52:21.620Z,99.90
2018-10-12T02:54:48.299Z,99.90
2018-10-12T02:57:14.962Z,99.90
2018-10-12T02:59:41.603Z,99.90
2018-10-12T03:02:08.527Z,99.90
2018-10-12T03:04:35.381Z,99.90
2018-10-12T03:07:02.118Z,99.90
2018-10-12T03:09:29.126Z,99.90
2018-10-12T03:11:55.787Z,99.90
2018-10-12T03:14:22.443Z,99.90
2018-10-12T03:16:49.175Z,99.90
2018-10-12T03:19:15.831Z,99.90
2018-10-12T03:21:42.488Z,99.90
2018-10-12T03:24:09.156Z,99.90
2018-10-12T03:26:35.799Z,99.90
2018-10-12T03:29:02.584Z,99.90
2018-10-12T03:31:29.434Z,99.90
2018-10-12T03:33:56.154Z,99.90
2018-10-12T03:36:23.020Z,99.90
2018-10-12T03:38:49.855Z,99.90
2018-10-12T03:41:16.505Z,99.90
2018-10-12T03:43:43.223Z,99.90
2018-10-12T03:46:09.862Z,99.90
2018-10-12T03:48:36.520Z,99.90
2018-10-12T03:51:03.241Z,99.90
2018-10-12T03:53:30.119Z,99.90
2018-10-12T03:55:56.864Z,99.90
2018-10-12T03:58:23.574Z,99.90
2018-10-12T04:00:50.223Z,99.90
2018-10-12T04:03:17.048Z,99.90
2018-10-12T04:05:43.704Z,99.90
2018-10-12T04:08:10.358Z,99.90
2018-10-12T04:10:37.003Z,99.90
2018-10-12T04:13:03.780Z,99.90
2018-10-12T04:15:30.804Z,99.90
2018-10-12T04:17:57.825Z,99.90
2018-10-12T04:20:24.498Z,99.90
2018-10-12T04:22:51.132Z,99.90
2018-10-12T04:25:17.866Z,99.90
2018-10-12T04:27:44.534Z,99.90
2018-10-12T04:30:11.307Z,99.90
2018-10-12T04:32:37.964Z,99.90
2018-10-12T04:35:04.684Z,99.90
2018-10-12T04:37:31.487Z,99.90
2018-10-12T04:40:04.115Z,99.90
2018-10-12T04:42:30.993Z,99.90
2018-10-12T04:44:58.364Z,99.90
2018-10-12T04:47:27.526Z,99.90
2018-10-12T04:49:54.243Z,99.90
2018-10-12T04:52:21.976Z,99.90
2018-10-12T04:54:48.900Z,99.90
2018-10-12T04:57:15.563Z,99.90
2018-10-12T04:59:42.238Z,99.90
2018-10-12T05:02:08.867Z,99.90
2018-10-12T05:04:35.650Z,99.90
2018-10-12T05:07:02.388Z,99.90
2018-10-12T05:09:29.322Z,99.90
2018-10-12T05:11:56.006Z,99.90
2018-10-12T05:14:22.675Z,99.90
2018-10-12T05:16:49.423Z,99.90
2018-10-12T05:19:16.100Z,99.90
2018-10-12T05:21:42.747Z,99.90
2018-10-12T05:24:09.430Z,99.90
2018-10-12T05:26:36.084Z,99.90
2018-10-12T05:29:02.848Z,99.90
2018-10-12T05:31:29.689Z,99.90
2018-10-12T05:33:57.666Z,99.90
2018-10-12T05:36:24.371Z,99.90
2018-10-12T05:38:51.012Z,99.90
2018-10-12T05:41:17.903Z,99.90
2018-10-12T05:43:44.659Z,99.90
2018-10-12T05:46:11.271Z,99.90
2018-10-12T05:48:43.652Z,99.90
2018-10-12T05:51:11.814Z,99.90
2018-10-12T05:53:38.467Z,99.90
2018-10-12T05:56:05.455Z,99.90
2018-10-12T05:58:32.511Z,99.90
2018-10-12T06:00:59.412Z,99.90
2018-10-12T06:03:26.091Z,99.90
2018-10-12T06:05:52.767Z,99.90
2018-10-12T06:08:19.517Z,99.90
2018-10-12T06:10:46.303Z,99.90
2018-10-12T06:13:12.955Z,99.90
2018-10-12T06:15:39.781Z,99.90
2018-10-12T06:18:07.103Z,99.90
2018-10-12T06:20:33.852Z,99.90
2018-10-12T06:23:00.747Z,99.90
2018-10-12T06:25:27.597Z,99.90
2018-10-12T06:27:54.246Z,99.90
2018-10-12T06:30:20.902Z,99.90
2018-10-12T06:32:47.699Z,99.90
2018-10-12T06:35:14.370Z,99.90
2018-10-12T06:37:40.998Z,99.90
2018-10-12T06:40:07.664Z,99.90
2018-10-12T06:42:34.443Z,99.90
2018-10-12T06:45:01.372Z,99.90
2018-10-12T06:47:28.365Z,99.80
2018-10-12T06:49:55.138Z,98.70
2018-10-12T06:52:21.795Z,98.70
2018-10-12T06:54:48.556Z,97.60
2018-10-12T06:57:15.223Z,96.30
2018-10-12T06:59:41.867Z,94.60
2018-10-12T07:02:08.816Z,93.60
2018-10-12T07:04:35.527Z,92.80
2018-10-12T07:07:02.306Z,91.30
2018-10-12T07:09:29.185Z,89.90
2018-10-12T07:11:55.862Z,86.10
2018-10-12T07:14:22.487Z,83.50
2018-10-12T07:16:49.340Z,81.50
2018-10-12T07:19:15.951Z,78.00
2018-10-12T07:21:42.603Z,76.20
2018-10-12T07:24:09.270Z,74.50
2018-10-12T07:26:35.975Z,74.50
2018-10-12T07:29:02.666Z,74.20
2018-10-12T07:31:29.520Z,72.90
2018-10-12T07:33:56.114Z,74.30
2018-10-12T07:36:22.868Z,72.30
2018-10-12T07:38:49.602Z,71.10
2018-10-12T07:41:16.286Z,69.20
2018-10-12T07:43:43.059Z,67.80
2018-10-12T07:46:09.719Z,67.10
2018-10-12T07:48:36.369Z,68.90
2018-10-12T07:51:03.190Z,71.00
2018-10-12T07:53:30.058Z,72.40
2018-10-12T07:55:56.817Z,71.80
2018-10-12T07:58:23.474Z,70.40
2018-10-12T08:00:50.159Z,67.70
2018-10-12T08:03:16.842Z,67.70
2018-10-12T08:05:43.506Z,67.10
2018-10-12T08:08:10.167Z,67.60
2018-10-12T08:10:36.799Z,68.50
2018-10-12T08:13:03.539Z,69.40
2018-10-12T08:15:30.525Z,69.70
2018-10-12T08:17:57.972Z,70.20
2018-10-12T08:20:24.776Z,71.00
2018-10-12T08:22:51.482Z,71.10
2018-10-12T08:25:18.262Z,68.70
2018-10-12T08:27:44.938Z,66.50
2018-10-12T08:30:11.580Z,64.30
2018-10-12T08:32:38.394Z,63.00
2018-10-12T08:35:05.206Z,65.30
2018-10-12T08:37:32.046Z,67.90
2018-10-12T08:39:58.963Z,65.00
2018-10-12T08:42:25.662Z,62.80
2018-10-12T08:44:52.362Z,59.90
2018-10-12T08:47:19.122Z,58.00
2018-10-12T08:49:45.742Z,56.20
2018-10-12T08:52:12.396Z,55.60
2018-10-12T08:54:39.230Z,54.00
2018-10-12T08:57:06.020Z,52.10
2018-10-12T08:59:32.800Z,51.20
2018-10-12T09:01:59.806Z,49.10
2018-10-12T09:04:26.508Z,49.50
2018-10-12T09:06:53.353Z,47.60
2018-10-12T09:09:19.994Z,47.20
2018-10-12T09:11:46.663Z,45.30
2018-10-12T09:14:13.298Z,45.60
2018-10-12T09:16:39.954Z,45.80
2018-10-12T09:19:06.676Z,44.50
2018-10-12T09:21:33.555Z,44.40
2018-10-12T09:24:00.561Z,43.70
2018-10-12T09:26:27.332Z,42.80
2018-10-12T09:28:54.187Z,41.70
2018-10-12T09:31:20.835Z,41.60
2018-10-12T09:33:47.494Z,40.40
2018-10-12T09:36:14.126Z,40.90
2018-10-12T09:38:40.786Z,40.10
2018-10-12T09:41:07.569Z,40.30
2018-10-12T09:43:34.473Z,39.80
2018-10-12T09:46:01.473Z,39.40
2018-10-12T09:48:28.386Z,38.90
2018-10-12T09:50:55.077Z,38.80
2018-10-12T09:53:21.772Z,39.00
2018-10-12T09:55:48.436Z,38.40
2018-10-12T09:58:15.090Z,38.30
2018-10-12T10:00:47.403Z,37.90
2018-10-12T10:03:19.803Z,38.00
2018-10-12T10:05:46.439Z,38.00
2018-10-12T10:08:13.343Z,38.20
2018-10-12T10:10:39.884Z,38.40
2018-10-12T10:13:07.038Z,37.80
2018-10-12T10:15:33.864Z,37.80
2018-10-12T10:18:00.739Z,37.10
2018-10-12T10:20:27.749Z,36.20
2018-10-12T10:22:54.913Z,36.60
2018-10-12T10:25:21.714Z,36.40
2018-10-12T10:27:48.443Z,35.60
2018-10-12T10:30:15.104Z,35.60
2018-10-12T10:32:41.755Z,35.40
2018-10-12T10:35:08.445Z,35.30
2018-10-12T10:37:35.111Z,35.20
2018-10-12T10:40:01.820Z,35.30
2018-10-12T10:42:28.606Z,35.80
2018-10-12T10:44:55.287Z,35.60
2018-10-12T10:47:21.965Z,36.40
2018-10-12T10:49:48.742Z,36.60
2018-10-12T10:52:15.438Z,36.60
2018-10-12T10:54:42.128Z,37.10
2018-10-12T10:57:08.793Z,37.50
2018-10-12T10:59:36.081Z,38.10
2018-10-12T11:02:02.853Z,38.30
2018-10-12T11:04:30.383Z,38.80
2018-10-12T11:06:57.043Z,39.30
2018-10-12T11:09:23.722Z,39.20
2018-10-12T11:11:50.367Z,38.90
2018-10-12T11:14:17.034Z,38.50
2018-10-12T11:16:43.703Z,39.00
2018-10-12T11:19:10.471Z,38.60
2018-10-12T11:21:37.110Z,38.40
2018-10-12T11:24:03.825Z,38.10
2018-10-12T11:26:30.534Z,38.40
2018-10-12T11:28:57.994Z,38.70
2018-10-12T11:31:24.630Z,37.60
2018-10-12T11:33:51.310Z,37.00
2018-10-12T11:36:17.942Z,37.40
2018-10-12T11:38:44.719Z,37.40
2018-10-12T11:41:11.462Z,37.50
2018-10-12T11:43:38.892Z,36.90
2018-10-12T11:46:05.579Z,36.90
2018-10-12T11:48:32.219Z,37.00
2018-10-12T11:50:59.400Z,37.30
2018-10-12T11:53:26.047Z,37.20
2018-10-12T11:55:52.731Z,37.30
2018-10-12T11:58:19.387Z,37.00
2018-10-12T12:00:46.086Z,37.10
2018-10-12T12:03:12.759Z,37.20
2018-10-12T12:05:39.426Z,37.50
2018-10-12T12:08:06.512Z,37.70
2018-10-12T12:10:33.192Z,37.70
2018-10-12T12:12:59.886Z,37.50
2018-10-12T12:15:26.570Z,37.60
2018-10-12T12:17:53.215Z,38.30
2018-10-12T12:20:19.879Z,38.50
2018-10-12T12:22:46.559Z,38.70
2018-10-12T12:25:13.238Z,38.30
2018-10-12T12:27:39.916Z,38.70
2018-10-12T12:30:06.583Z,37.90
2018-10-12T12:32:33.248Z,37.90
2018-10-12T12:34:59.993Z,38.10
2018-10-12T12:37:26.647Z,38.10
2018-10-12T12:39:53.339Z,38.10
2018-10-12T12:42:19.982Z,37.50
2018-10-12T12:44:46.658Z,37.70
2018-10-12T12:47:13.372Z,37.70
2018-10-12T12:49:40.055Z,37.50
2018-10-12T12:52:06.695Z,37.70
2018-10-12T12:54:33.385Z,36.70
2018-10-12T12:57:00.024Z,36.50
2018-10-12T12:59:26.671Z,36.30
2018-10-12T13:01:53.403Z,36.20
2018-10-12T13:04:20.210Z,36.20
2018-10-12T13:06:46.871Z,36.40
2018-10-12T13:09:13.515Z,36.40
2018-10-12T13:11:40.175Z,36.30
2018-10-12T13:14:06.827Z,36.60
2018-10-12T13:16:33.490Z,37.30
2018-10-12T13:19:00.153Z,37.80
2018-10-12T13:21:26.860Z,39.30
2018-10-12T13:23:53.555Z,39.60
2018-10-12T13:26:20.356Z,39.10
2018-10-12T13:28:46.879Z,38.70
2018-10-12T13:31:13.558Z,38.80
2018-10-12T13:33:40.210Z,39.80
2018-10-12T13:36:06.967Z,40.10
2018-10-12T13:38:33.627Z,40.50
2018-10-12T13:41:00.292Z,41.20
2018-10-12T13:43:27.263Z,41.20
2018-10-12T13:45:53.938Z,40.90
2018-10-12T13:48:20.572Z,40.90
2018-10-12T13:50:47.256Z,41.00
2018-10-12T13:53:13.932Z,41.60
2018-10-12T13:55:40.659Z,41.80
2018-10-12T13:58:07.299Z,41.80
2018-10-12T14:00:33.964Z,42.40
2018-10-12T14:03:00.675Z,42.80
2018-10-12T14:05:27.366Z,42.10
2018-10-12T14:07:54.087Z,42.30
2018-10-12T14:10:20.715Z,42.40
2018-10-12T14:12:47.396Z,42.00
2018-10-12T14:15:14.144Z,42.00
2018-10-12T14:17:40.799Z,42.50
2018-10-12T14:20:07.522Z,43.60
2018-10-12T14:22:34.119Z,43.30
2018-10-12T14:25:00.777Z,43.40
2018-10-12T14:27:27.440Z,43.90
2018-10-12T14:29:54.160Z,44.10
2018-10-12T14:32:20.827Z,45.70
2018-10-12T14:34:47.476Z,46.60
2018-10-12T14:37:14.156Z,48.30
2018-10-12T14:39:40.796Z,50.80
2018-10-12T14:42:07.491Z,50.90
2018-10-12T14:44:34.171Z,52.40
2018-10-12T14:47:00.842Z,53.60
2018-10-12T14:49:27.486Z,54.80
2018-10-12T14:51:54.399Z,55.80
2018-10-12T14:54:21.917Z,56.30
2018-10-12T14:56:49.387Z,56.80
2018-10-12T14:59:16.231Z,57.00
2018-10-12T15:01:43.456Z,57.20
2018-10-12T15:04:10.710Z,57.50
2018-10-12T15:06:37.440Z,58.20
2018-10-12T15:09:06.622Z,58.00
2018-10-12T15:11:33.350Z,57.90
2018-10-12T15:13:59.955Z,57.10
2018-10-12T15:16:33.622Z,56.80
2018-10-12T15:19:01.361Z,56.90
2018-10-12T15:21:29.020Z,56.80
2018-10-12T15:23:55.474Z,57.50
2018-10-12T15:26:22.829Z,58.20
2018-10-12T15:28:50.282Z,58.60
2018-10-12T15:31:17.941Z,59.40
2018-10-12T15:33:45.440Z,60.60
2018-10-12T15:36:12.712Z,59.90
2018-10-12T15:38:39.600Z,60.60
2018-10-12T15:41:06.656Z,60.90
2018-10-12T15:43:33.306Z,61.00
2018-10-12T15:45:59.947Z,60.90
2018-10-12T15:48:26.915Z,61.30
2018-10-12T15:50:54.111Z,61.40
2018-10-12T15:53:21.382Z,62.00
2018-10-12T15:55:48.891Z,61.80
2018-10-12T15:58:15.802Z,61.70
2018-10-12T16:00:42.904Z,61.60
2018-10-12T16:03:10.144Z,61.70
2018-10-12T16:05:36.850Z,61.50
2018-10-12T16:08:03.510Z,61.90
2018-10-12T16:10:30.184Z,62.10
2018-10-12T16:12:57.179Z,62.80
2018-10-12T16:15:24.249Z,63.50
2018-10-12T16:17:51.380Z,64.20
2018-10-12T16:20:18.865Z,64.90
2018-10-12T16:22:45.689Z,65.80
2018-10-12T16:25:18.548Z,66.40
2018-10-12T16:27:45.298Z,67.20
2018-10-12T16:30:12.324Z,67.40
2018-10-12T16:32:39.038Z,67.90
2018-10-12T16:35:05.670Z,68.60
2018-10-12T16:37:32.831Z,68.80
2018-10-12T16:39:59.524Z,69.20
2018-10-12T16:42:26.323Z,69.50
2018-10-12T16:44:53.091Z,70.00
2018-10-12T16:47:19.796Z,70.70
2018-10-12T16:49:46.452Z,71.00
2018-10-12T16:52:13.094Z,71.80
2018-10-12T16:54:39.762Z,72.30
2018-10-12T16:57:07.336Z,72.70
2018-10-12T16:59:34.959Z,73.00
2018-10-12T17:02:01.816Z,73.20
2018-10-12T17:04:28.472Z,73.50
2018-10-12T17:06:55.859Z,74.40
2018-10-12T17:09:22.592Z,75.00
2018-10-12T17:11:50.995Z,75.40
2018-10-12T17:14:18.609Z,75.90
2018-10-12T17:16:46.106Z,76.20
2018-10-12T17:19:13.632Z,76.40
2018-10-12T17:21:41.113Z,76.50
2018-10-12T17:24:08.639Z,76.80
2018-10-12T17:26:36.124Z,77.10
2018-10-12T17:29:03.553Z,78.20
2018-10-12T17:31:31.026Z,78.40
2018-10-12T17:33:58.541Z,78.60
2018-10-12T17:36:26.018Z,79.20
2018-10-12T17:38:53.652Z,78.90
2018-10-12T17:41:22.485Z,79.40
2018-10-12T17:43:50.070Z,79.20
2018-10-12T17:46:17.618Z,79.20
2018-10-12T17:48:45.143Z,79.40
2018-10-12T17:51:13.203Z,79.60
2018-10-12T17:53:41.064Z,80.10
2018-10-12T17:56:08.668Z,80.30
2018-10-12T17:58:36.183Z,80.60
2018-10-12T18:01:04.546Z,80.90
2018-10-12T18:03:32.829Z,81.10
2018-10-12T18:06:01.605Z,81.10
2018-10-12T18:08:29.222Z,81.40
2018-10-12T18:10:56.695Z,81.60
2018-10-12T18:13:24.128Z,82.00
2018-10-12T18:15:51.655Z,82.20
2018-10-12T18:18:19.990Z,83.20
2018-10-12T18:20:46.702Z,82.70
2018-10-12T18:23:13.344Z,83.00
2018-10-12T18:25:40.059Z,83.50
2018-10-12T18:28:06.716Z,83.90
2018-10-12T18:30:33.462Z,84.30
2018-10-12T18:33:00.124Z,84.70
2018-10-12T18:35:26.827Z,85.00
2018-10-12T18:37:53.488Z,85.80
2018-10-12T18:40:20.250Z,86.70
2018-10-12T18:42:46.906Z,87.00
2018-10-12T18:45:13.593Z,87.80
2018-10-12T18:47:40.295Z,87.80
2018-10-12T18:50:06.920Z,88.40
2018-10-12T18:52:33.742Z,89.10
2018-10-12T18:55:00.799Z,89.50
2018-10-12T18:57:27.470Z,89.80
2018-10-12T18:59:54.495Z,90.00
2018-10-12T19:02:21.094Z,90.10
2018-10-12T19:04:47.815Z,90.10
2018-10-12T19:07:14.446Z,89.90
2018-10-12T19:09:41.106Z,89.40
2018-10-12T19:12:07.760Z,89.20
2018-10-12T19:14:34.617Z,89.40
2018-10-12T19:17:01.252Z,89.40
2018-10-12T19:19:28.193Z,89.30
2018-10-12T19:21:54.846Z,89.20
2018-10-12T19:24:21.486Z,89.30
2018-10-12T19:26:48.130Z,89.40
2018-10-12T19:29:14.766Z,89.70
2018-10-12T19:31:41.438Z,90.00
2018-10-12T19:34:08.075Z,90.00
2018-10-12T19:36:34.726Z,90.10
2018-10-12T19:39:01.388Z,90.60
2018-10-12T19:41:28.050Z,90.40
2018-10-12T19:43:54.739Z,90.60
2018-10-12T19:46:21.382Z,90.70
2018-10-12T19:48:48.076Z,90.60
2018-10-12T19:51:14.745Z,90.60
2018-10-12T19:53:41.451Z,90.50
2018-10-12T19:56:08.387Z,90.50
2018-10-12T19:58:35.033Z,90.40
2018-10-12T20:01:01.730Z,90.50
2018-10-12T20:03:28.407Z,90.40
2018-10-12T20:05:55.050Z,90.40
2018-10-12T20:08:21.716Z,90.50
2018-10-12T20:10:48.368Z,90.80
2018-10-12T20:13:15.026Z,90.90
2018-10-12T20:15:41.673Z,90.90
2018-10-12T20:18:08.418Z,91.00
2018-10-12T20:20:35.043Z,91.10
2018-10-12T20:23:01.747Z,91.20
2018-10-12T20:25:28.445Z,91.40
2018-10-12T20:27:55.121Z,91.50
2018-10-12T20:30:21.755Z,91.60
2018-10-12T20:32:48.436Z,91.70
2018-10-12T20:35:15.086Z,92.00
2018-10-12T20:37:41.719Z,92.30
2018-10-12T20:40:08.355Z,92.60
2018-10-12T20:42:35.039Z,93.50
2018-10-12T20:45:01.780Z,94.60
2018-10-12T20:47:28.487Z,95.80
2018-10-12T20:49:55.140Z,96.60
2018-10-12T20:52:22.083Z,97.10
2018-10-12T20:54:48.799Z,97.70
2018-10-12T20:57:15.435Z,98.50
2018-10-12T20:59:42.083Z,99.30
2018-10-12T21:02:08.723Z,99.90
2018-10-12T21:04:35.450Z,99.90
2018-10-12T21:07:02.262Z,99.90
2018-10-12T21:09:29.106Z,99.90
2018-10-12T21:11:55.791Z,99.90
2018-10-12T21:14:22.426Z,99.90
2018-10-12T21:16:49.177Z,99.90
2018-10-12T21:19:15.847Z,99.90
2018-10-12T21:21:42.486Z,99.90
2018-10-12T21:24:09.135Z,99.90
2018-10-12T21:26:35.807Z,99.90
2018-10-12T21:29:02.635Z,99.90
2018-10-12T21:31:29.493Z,99.90
2018-10-12T21:33:56.174Z,99.90
2018-10-12T21:36:22.818Z,99.90
2018-10-12T21:38:49.598Z,99.90
2018-10-12T21:41:16.226Z,99.90
2018-10-12T21:43:42.876Z,99.90
2018-10-12T21:46:09.515Z,99.90
2018-10-12T21:48:36.160Z,99.90
2018-10-12T21:51:02.940Z,99.90
2018-10-12T21:53:29.860Z,99.90
2018-10-12T21:55:56.527Z,99.90
2018-10-12T21:58:23.171Z,99.90
2018-10-12T22:00:55.735Z,99.90
2018-10-12T22:03:22.383Z,99.90
2018-10-12T22:05:49.108Z,99.90
2018-10-12T22:08:21.650Z,99.90
2018-10-12T22:10:48.463Z,99.90
2018-10-12T22:13:15.149Z,99.90
2018-10-12T22:15:41.810Z,99.90
2018-10-12T22:18:08.444Z,99.90
2018-10-12T22:20:35.313Z,99.90
2018-10-12T22:23:02.115Z,99.90
2018-10-12T22:25:29.215Z,99.90
2018-10-12T22:27:55.944Z,99.90
2018-10-12T22:30:22.616Z,99.90
2018-10-12T22:32:49.326Z,99.90
2018-10-12T22:35:15.999Z,99.90
2018-10-12T22:37:42.641Z,99.90
2018-10-12T22:42:42.976Z,99.90
2018-10-12T22:45:09.649Z,99.90
2018-10-12T22:47:36.363Z,99.90
2018-10-12T22:50:03.222Z,99.90
2018-10-12T22:52:30.112Z,99.90
2018-10-12T22:55:06.857Z,99.90
2018-10-12T22:57:33.729Z,99.90
2018-10-12T23:00:00.787Z,99.90
2018-10-12T23:02:28.537Z,99.90
2018-10-12T23:04:55.214Z,99.90
2018-10-12T23:07:22.079Z,99.90
2018-10-12T23:09:48.799Z,99.90
2018-10-12T23:12:15.482Z,99.90
2018-10-12T23:14:42.114Z,99.90
2018-10-12T23:17:08.750Z,99.90
2018-10-12T23:19:35.710Z,99.90
2018-10-12T23:22:03.029Z,99.90
2018-10-12T23:24:30.241Z,99.90
2018-10-12T23:26:57.170Z,99.90
2018-10-12T23:29:24.018Z,99.90
2018-10-12T23:31:50.990Z,99.90
2018-10-12T23:34:17.645Z,99.90
2018-10-12T23:36:44.258Z,99.90
2018-10-12T23:39:10.913Z,99.90
2018-10-12T23:41:37.673Z,99.90
2018-10-12T23:44:04.861Z,99.90
2018-10-12T23:46:31.874Z,99.90
2018-10-12T23:48:58.892Z,99.90
2018-10-12T23:51:25.634Z,99.90
2018-10-12T23:53:52.690Z,99.90
2018-10-12T23:56:19.443Z,99.90
2018-10-12T23:58:46.586Z,99.90
